Time;durP1;ratioP1;P1;durP2;ratioP2;P2;SDS_P1;SDS_P2;PMS_P1;PMS_P2;Temp;Humidity;BMP_temperature;BMP_pressure;BME280_temperature;BME280_humidity;BME280_pressure;Samples;Min_cycle;Max_cycle;Signal;HPM_P1;HPM_P2
2021/10/18 00:00:51;;;;;;;9.87;8.97;;;8.90;85.50;;;;;;5051941;28;20208;-87
2021/10/18 00:03:18;;;;;;;9.63;8.73;;;8.90;85.40;;;;;;5030761;28;20208;-88
2021/10/18 00:05:43;;;;;;;9.77;8.87;;;8.90;85.70;;;;;;5050182;28;20227;-89
2021/10/18 00:08:09;;;;;;;10.13;9.13;;;8.90;85.40;;;;;;5047691;28;20207;-89
2021/10/18 00:10:35;;;;;;;10.47;9.13;;;8.80;84.90;;;;;;5031591;28;20244;-88
2021/10/18 00:13:01;;;;;;;10.13;8.90;;;8.80;85.70;;;;;;5050863;28;20220;-89
2021/10/18 00:15:27;;;;;;;11.33;8.47;;;8.80;86.40;;;;;;5039473;28;20188;-89
2021/10/18 00:17:53;;;;;;;10.10;9.00;;;8.90;85.60;;;;;;5029420;28;20189;-89
2021/10/18 00:20:18;;;;;;;9.10;8.30;;;8.80;85.20;;;;;;5040961;28;20203;-89
2021/10/18 00:22:44;;;;;;;8.97;8.13;;;8.70;85.30;;;;;;5032838;28;20231;-89
2021/10/18 00:25:12;;;;;;;9.70;8.80;;;8.70;86.10;;;;;;5046850;28;20561;-88
2021/10/18 00:27:37;;;;;;;9.00;8.13;;;8.70;85.70;;;;;;5044226;28;20296;-89
2021/10/18 00:30:05;;;;;;;10.70;8.70;;;8.70;85.80;;;;;;5045629;28;20860;-89
2021/10/18 00:32:31;;;;;;;9.67;8.60;;;8.70;85.50;;;;;;5049365;28;20188;-89
2021/10/18 00:34:56;;;;;;;8.70;7.90;;;8.60;85.70;;;;;;5048349;28;20192;-88
2021/10/18 00:37:22;;;;;;;9.70;8.70;;;8.60;85.90;;;;;;5037953;28;20189;-88
2021/10/18 00:39:48;;;;;;;10.93;8.63;;;8.60;85.60;;;;;;5022475;28;20189;-88
2021/10/18 00:42:13;;;;;;;8.97;8.17;;;8.60;85.80;;;;;;5030042;28;20203;-89
2021/10/18 00:44:40;;;;;;;9.53;8.57;;;8.70;85.60;;;;;;5044909;28;20291;-89
2021/10/18 00:47:05;;;;;;;10.33;9.17;;;8.70;85.20;;;;;;5035222;28;20272;-89
2021/10/18 00:49:31;;;;;;;9.40;8.53;;;8.50;84.90;;;;;;5016821;28;20507;-88
2021/10/18 00:51:58;;;;;;;8.73;7.97;;;8.50;84.90;;;;;;5041609;28;20304;-89
2021/10/18 00:54:24;;;;;;;10.60;9.50;;;8.50;85.30;;;;;;5055326;28;20239;-88
2021/10/18 00:56:50;;;;;;;9.87;8.87;;;8.50;85.00;;;;;;5052793;28;20215;-89
2021/10/18 00:59:17;;;;;;;8.80;8.03;;;8.50;85.10;;;;;;5046422;28;20200;-89
2021/10/18 01:01:43;;;;;;;9.97;8.90;;;8.60;85.50;;;;;;5027912;28;20192;-88
2021/10/18 01:04:10;;;;;;;8.93;8.10;;;8.60;85.00;;;;;;5049750;28;20265;-88
2021/10/18 01:06:35;;;;;;;8.83;7.93;;;8.60;84.80;;;;;;5029716;28;20567;-88
2021/10/18 01:09:01;;;;;;;9.80;8.80;;;8.50;84.90;;;;;;5021143;28;20204;-88
2021/10/18 01:11:27;;;;;;;9.53;8.53;;;8.50;85.30;;;;;;5050759;28;20222;-88
2021/10/18 01:13:53;;;;;;;9.03;8.23;;;8.40;84.60;;;;;;5021932;28;20217;-89
2021/10/18 01:16:18;;;;;;;9.53;8.63;;;8.40;84.40;;;;;;5010237;28;20250;-89
2021/10/18 01:18:44;;;;;;;9.03;8.23;;;8.50;84.40;;;;;;5015706;28;20792;-89
2021/10/18 01:21:09;;;;;;;8.77;7.97;;;8.40;84.80;;;;;;5048577;28;20191;-88
2021/10/18 01:23:35;;;;;;;8.37;7.67;;;8.40;84.60;;;;;;5045943;28;20295;-88
2021/10/18 01:26:01;;;;;;;8.57;7.77;;;8.40;84.30;;;;;;5036645;28;20283;-88
2021/10/18 01:28:27;;;;;;;8.63;7.83;;;8.40;84.60;;;;;;5030401;28;20222;-88
2021/10/18 01:30:53;;;;;;;8.60;7.80;;;8.40;84.40;;;;;;5059667;28;20263;-88
2021/10/18 01:33:18;;;;;;;9.67;7.50;;;8.40;84.00;;;;;;5054317;28;20211;-88
2021/10/18 01:35:46;;;;;;;8.97;7.97;;;8.30;84.10;;;;;;5051432;28;20189;-88
2021/10/18 01:38:12;;;;;;;10.43;8.57;;;8.30;84.10;;;;;;5049489;28;20196;-88
2021/10/18 01:40:38;;;;;;;8.97;8.07;;;8.20;83.70;;;;;;5049286;28;20200;-89
2021/10/18 01:43:04;;;;;;;8.30;7.50;;;8.20;83.60;;;;;;5051154;28;20287;-89
2021/10/18 01:45:29;;;;;;;8.30;7.50;;;8.20;83.60;;;;;;5049666;28;20192;-89
2021/10/18 01:47:55;;;;;;;8.70;7.87;;;8.20;83.80;;;;;;5049277;28;20275;-88
2021/10/18 01:50:24;;;;;;;7.80;7.13;;;8.10;84.60;;;;;;5047849;28;20744;-89
2021/10/18 01:52:51;;;;;;;10.00;7.47;;;8.10;84.20;;;;;;5049866;28;20208;-88
2021/10/18 01:55:18;;;;;;;8.27;7.07;;;8.00;83.90;;;;;;5050832;28;20180;-88
2021/10/18 01:57:45;;;;;;;8.37;7.57;;;8.00;83.70;;;;;;5052374;28;20279;-89
2021/10/18 02:00:11;;;;;;;8.30;7.47;;;8.00;83.70;;;;;;5042530;28;20203;-88
2021/10/18 02:02:37;;;;;;;7.97;7.27;;;8.10;84.00;;;;;;5050130;28;20376;-88
2021/10/18 02:05:03;;;;;;;8.77;7.83;;;8.10;84.00;;;;;;5024203;28;20656;-88
2021/10/18 02:07:29;;;;;;;8.77;7.93;;;8.00;83.60;;;;;;5040053;28;20188;-87
2021/10/18 02:09:55;;;;;;;9.40;8.50;;;7.90;84.60;;;;;;5072781;28;20226;-87
2021/10/18 02:12:22;;;;;;;9.30;8.17;;;8.00;84.60;;;;;;5054958;28;20192;-88
2021/10/18 02:14:47;;;;;;;8.47;7.67;;;7.90;84.80;;;;;;5063877;28;20192;-88
2021/10/18 02:17:13;;;;;;;8.57;7.67;;;7.80;85.00;;;;;;5055483;28;20200;-88
2021/10/18 02:19:39;;;;;;;9.23;8.33;;;7.80;84.50;;;;;;5034537;28;20188;-89
2021/10/18 02:22:04;;;;;;;8.87;7.97;;;7.70;85.10;;;;;;5034324;28;20227;-89
2021/10/18 02:24:30;;;;;;;8.77;7.90;;;7.70;85.40;;;;;;5024184;28;20213;-89
2021/10/18 02:26:56;;;;;;;8.83;8.00;;;7.70;84.90;;;;;;5050276;28;20592;-89
2021/10/18 02:29:22;;;;;;;8.97;8.03;;;7.60;84.30;;;;;;5051480;28;20277;-89
2021/10/18 02:31:47;;;;;;;8.37;7.50;;;7.60;85.40;;;;;;5043087;28;20209;-89
2021/10/18 02:34:13;;;;;;;9.37;8.43;;;7.60;86.00;;;;;;5050166;28;20216;-89
2021/10/18 02:36:39;;;;;;;8.80;8.10;;;7.60;85.90;;;;;;5047735;28;20231;-89
2021/10/18 02:39:05;;;;;;;8.23;7.43;;;7.60;86.10;;;;;;5039847;28;20184;-89
2021/10/18 02:41:30;;;;;;;8.43;7.67;;;7.50;85.70;;;;;;5052189;28;20196;-89
2021/10/18 02:43:56;;;;;;;8.57;7.67;;;7.60;86.30;;;;;;5033356;28;20212;-88
2021/10/18 02:46:22;;;;;;;8.27;7.27;;;7.60;85.60;;;;;;5035707;28;20196;-88
2021/10/18 02:48:48;;;;;;;7.97;7.17;;;7.60;85.00;;;;;;5051990;28;20235;-88
2021/10/18 02:51:13;;;;;;;7.87;7.17;;;7.50;84.90;;;;;;5049393;28;20204;-89
2021/10/18 02:53:39;;;;;;;8.90;8.10;;;7.50;85.00;;;;;;5051712;28;20266;-89
2021/10/18 02:56:05;;;;;;;7.97;7.27;;;7.60;85.00;;;;;;5051465;28;20196;-88
2021/10/18 02:58:30;;;;;;;7.47;6.77;;;7.60;84.80;;;;;;5050586;28;20235;-88
2021/10/18 03:00:56;;;;;;;7.03;6.40;;;7.60;84.20;;;;;;5048730;28;20200;-87
2021/10/18 03:03:22;;;;;;;7.63;6.93;;;7.60;84.00;;;;;;5051617;28;20227;-88
2021/10/18 03:05:47;;;;;;;9.27;6.80;;;7.60;83.50;;;;;;5033373;28;20196;-88
2021/10/18 03:08:13;;;;;;;6.77;6.17;;;7.50;83.60;;;;;;5050168;28;20653;-88
2021/10/18 03:10:41;;;;;;;7.80;7.10;;;7.30;83.60;;;;;;5052542;28;20215;-89
2021/10/18 03:13:08;;;;;;;7.60;6.90;;;7.20;84.20;;;;;;5034715;28;20212;-88
2021/10/18 03:15:34;;;;;;;7.40;6.67;;;7.20;84.60;;;;;;5049405;28;20188;-89
2021/10/18 03:18:00;;;;;;;7.27;6.67;;;7.30;84.70;;;;;;5051377;28;20560;-88
2021/10/18 03:20:26;;;;;;;7.30;6.60;;;7.30;84.60;;;;;;5050705;28;20219;-89
2021/10/18 03:22:53;;;;;;;7.50;6.77;;;7.30;84.50;;;;;;5047613;28;20221;-88
2021/10/18 03:25:18;;;;;;;7.20;6.60;;;7.30;83.80;;;;;;5024029;28;20712;-88
2021/10/18 03:27:44;;;;;;;8.30;6.93;;;7.40;84.00;;;;;;5038840;28;20201;-88
2021/10/18 03:30:10;;;;;;;8.40;7.60;;;7.40;83.40;;;;;;5029313;28;20236;-88
2021/10/18 03:32:36;;;;;;;8.97;7.57;;;7.30;82.30;;;;;;5046032;28;20218;-88
2021/10/18 03:35:02;;;;;;;10.10;7.43;;;7.10;82.80;;;;;;5051831;28;20192;-88
2021/10/18 03:37:28;;;;;;;7.50;6.80;;;7.00;84.40;;;;;;5052714;28;20201;-89
2021/10/18 03:39:53;;;;;;;7.47;6.77;;;7.10;84.80;;;;;;5050216;28;20203;-89
2021/10/18 03:42:19;;;;;;;7.93;6.83;;;7.20;84.50;;;;;;5050704;28;20276;-89
2021/10/18 03:44:45;;;;;;;8.47;7.67;;;7.30;84.40;;;;;;5032600;28;20295;-89
2021/10/18 03:47:10;;;;;;;8.40;7.60;;;7.20;83.80;;;;;;5049812;28;20200;-89
2021/10/18 03:49:37;;;;;;;7.63;6.87;;;7.20;84.10;;;;;;5021539;28;20200;-89
2021/10/18 03:52:03;;;;;;;7.27;6.57;;;7.20;84.50;;;;;;5019659;28;20248;-89
2021/10/18 03:54:29;;;;;;;8.50;7.10;;;7.20;84.40;;;;;;5046191;28;20696;-89
2021/10/18 03:56:55;;;;;;;8.90;8.10;;;7.20;84.20;;;;;;5025487;28;20199;-89
2021/10/18 03:59:20;;;;;;;9.67;8.27;;;7.30;84.90;;;;;;5010371;28;20231;-89
2021/10/18 04:01:47;;;;;;;9.60;7.90;;;7.30;84.80;;;;;;5046912;28;20200;-88
2021/10/18 04:04:13;;;;;;;14.10;10.13;;;7.30;84.90;;;;;;5024834;28;20722;-89
2021/10/18 04:06:39;;;;;;;18.60;9.73;;;7.20;83.70;;;;;;5041616;28;20283;-89
2021/10/18 04:09:04;;;;;;;10.27;9.27;;;7.00;85.30;;;;;;5051165;28;20238;-90
2021/10/18 04:11:37;;;;;;;15.00;9.20;;;6.90;86.50;;;;;;5050933;28;20703;-90
2021/10/18 04:14:03;;;;;;;8.30;7.50;;;7.00;86.80;;;;;;5018066;28;20212;-91
2021/10/18 04:16:28;;;;;;;8.57;7.67;;;7.00;87.30;;;;;;5035937;28;20211;-89
2021/10/18 04:18:54;;;;;;;9.40;8.43;;;7.10;87.40;;;;;;5049934;28;20684;-90
2021/10/18 04:21:20;;;;;;;13.60;9.00;;;7.10;87.20;;;;;;5020042;28;20241;-88
2021/10/18 04:23:45;;;;;;;8.73;7.93;;;7.20;86.50;;;;;;5018683;28;20224;-87
2021/10/18 04:26:11;;;;;;;9.33;8.40;;;7.10;87.20;;;;;;5048383;28;20227;-89
2021/10/18 04:28:37;;;;;;;9.50;8.57;;;7.20;87.20;;;;;;5030401;28;20282;-87
2021/10/18 04:31:02;;;;;;;8.13;7.33;;;7.10;87.40;;;;;;5050472;28;20212;-88
2021/10/18 04:33:28;;;;;;;8.73;7.83;;;7.20;87.60;;;;;;5041616;28;20647;-88
2021/10/18 04:35:54;;;;;;;9.50;8.67;;;7.30;87.60;;;;;;5023994;28;20197;-89
2021/10/18 04:38:19;;;;;;;14.47;13.07;;;7.30;87.50;;;;;;5057094;28;20567;-88
2021/10/18 04:40:45;;;;;;;11.67;10.57;;;7.30;87.60;;;;;;5049795;28;20208;-88
2021/10/18 04:43:11;;;;;;;11.37;10.27;;;7.30;87.50;;;;;;5043923;28;20224;-88
2021/10/18 04:45:37;;;;;;;11.73;10.53;;;7.30;87.50;;;;;;5031608;28;20200;-89
2021/10/18 04:48:03;;;;;;;15.33;13.67;;;7.30;87.30;;;;;;5052395;28;20381;-88
2021/10/18 04:50:28;;;;;;;12.23;11.10;;;7.30;86.70;;;;;;5036927;28;20231;-88
2021/10/18 04:52:54;;;;;;;11.17;10.00;;;7.20;86.80;;;;;;5030797;28;20581;-87
2021/10/18 04:55:20;;;;;;;10.13;8.90;;;7.30;87.30;;;;;;5036889;28;20192;-88
2021/10/18 04:57:56;;;;;;;9.60;8.70;;;7.30;87.10;;;;;;5046020;28;20189;-89
2021/10/18 05:00:24;;;;;;;9.60;8.70;;;7.30;87.60;;;;;;5029757;28;20249;-88
2021/10/18 05:02:50;;;;;;;9.00;8.20;;;7.30;87.30;;;;;;5052710;28;20303;-88
2021/10/18 05:05:16;;;;;;;8.50;7.70;;;7.30;87.30;;;;;;5048888;28;20234;-87
2021/10/18 05:07:42;;;;;;;8.30;7.50;;;7.20;87.00;;;;;;5046910;28;20252;-87
2021/10/18 05:10:10;;;;;;;8.57;7.77;;;7.20;87.70;;;;;;5041150;28;20215;-88
2021/10/18 05:12:36;;;;;;;8.60;7.80;;;7.20;87.20;;;;;;5051948;28;20690;-88
2021/10/18 05:15:02;;;;;;;9.33;8.43;;;7.30;87.20;;;;;;5051993;28;20192;-87
2021/10/18 05:17:27;;;;;;;11.13;9.13;;;7.20;87.10;;;;;;5048698;28;20184;-87
2021/10/18 05:19:53;;;;;;;8.80;8.00;;;7.30;87.10;;;;;;5045446;28;20197;-87
2021/10/18 05:22:19;;;;;;;9.53;8.70;;;7.20;87.70;;;;;;5044578;28;20188;-88
2021/10/18 05:24:45;;;;;;;10.97;8.50;;;7.10;87.80;;;;;;5049433;28;20195;-88
2021/10/18 05:27:11;;;;;;;8.93;8.03;;;7.00;88.50;;;;;;5051037;28;20187;-87
2021/10/18 05:29:36;;;;;;;8.67;7.87;;;7.00;89.80;;;;;;5052881;28;20203;-88
2021/10/18 05:32:03;;;;;;;8.10;7.40;;;7.10;89.90;;;;;;5051233;28;20215;-88
2021/10/18 05:34:28;;;;;;;8.50;7.70;;;7.20;89.60;;;;;;5049235;28;20207;-87
2021/10/18 05:36:54;;;;;;;8.43;7.70;;;7.20;89.10;;;;;;5038228;28;20188;-87
2021/10/18 05:39:20;;;;;;;9.17;8.17;;;7.20;89.80;;;;;;5032153;28;20273;-88
2021/10/18 05:41:45;;;;;;;9.90;8.90;;;7.30;89.40;;;;;;5044980;28;20200;-87
2021/10/18 05:44:11;;;;;;;9.23;8.43;;;7.30;89.10;;;;;;5049918;28;20216;-87
2021/10/18 05:46:36;;;;;;;21.17;9.90;;;7.10;88.40;;;;;;5034108;28;20196;-88
2021/10/18 05:49:02;;;;;;;11.83;9.50;;;6.90;88.40;;;;;;5049781;28;20192;-87
2021/10/18 05:51:29;;;;;;;11.03;9.83;;;6.70;89.40;;;;;;5054801;28;20216;-88
2021/10/18 05:53:55;;;;;;;36.37;10.40;;;6.60;91.30;;;;;;5046262;28;20331;-89
2021/10/18 05:56:21;;;;;;;10.93;8.03;;;6.50;90.60;;;;;;5029570;28;20220;-89
2021/10/18 05:58:46;;;;;;;44.53;8.97;;;6.50;92.50;;;;;;5052156;28;20340;-88
2021/10/18 06:01:12;;;;;;;9.00;8.10;;;6.40;92.50;;;;;;5047839;28;20184;-88
2021/10/18 06:03:38;;;;;;;10.87;8.67;;;6.50;93.70;;;;;;5049091;28;20714;-89
2021/10/18 06:06:07;;;;;;;17.87;7.33;;;6.60;93.50;;;;;;5031006;28;20219;-89
2021/10/18 06:08:33;;;;;;;8.43;7.67;;;6.60;92.70;;;;;;5046040;28;20248;-89
2021/10/18 06:10:58;;;;;;;25.63;8.57;;;6.80;93.40;;;;;;5050245;28;20255;-89
2021/10/18 06:13:24;;;;;;;8.93;8.03;;;6.70;92.30;;;;;;5060767;28;20284;-88
2021/10/18 06:15:50;;;;;;;8.70;7.90;;;6.60;93.90;;;;;;5054747;28;20181;-88
2021/10/18 06:18:17;;;;;;;10.00;7.60;;;6.70;94.20;;;;;;5054972;28;20193;-87
2021/10/18 06:20:46;;;;;;;8.80;8.00;;;6.90;93.90;;;;;;5049203;28;20232;-88
2021/10/18 06:23:13;;;;;;;9.00;8.10;;;7.00;93.40;;;;;;5045327;28;20286;-87
2021/10/18 06:25:39;;;;;;;11.57;9.00;;;7.10;93.10;;;;;;5035888;28;20184;-88
2021/10/18 06:28:05;;;;;;;8.77;7.97;;;7.00;92.70;;;;;;5052958;28;20215;-88
2021/10/18 06:30:31;;;;;;;8.80;7.93;;;7.00;93.10;;;;;;5063757;28;20216;-87
2021/10/18 06:32:57;;;;;;;7.87;7.17;;;7.10;92.70;;;;;;5065373;28;20223;-86
2021/10/18 06:35:23;;;;;;;8.07;7.27;;;7.30;91.90;;;;;;5051632;28;20271;-88
2021/10/18 06:37:49;;;;;;;7.97;7.17;;;7.10;91.70;;;;;;5027895;28;20184;-87
2021/10/18 06:40:15;;;;;;;8.53;6.63;;;7.10;92.70;;;;;;5064207;28;20188;-87
2021/10/18 06:42:41;;;;;;;8.00;7.30;;;7.30;92.30;;;;;;5074100;28;20242;-88
2021/10/18 06:45:07;;;;;;;7.93;7.23;;;7.50;92.00;;;;;;5068505;28;20199;-86
2021/10/18 06:47:33;;;;;;;12.03;8.33;;;7.60;91.50;;;;;;5074420;28;20187;-88
2021/10/18 06:49:59;;;;;;;8.43;7.53;;;7.60;91.00;;;;;;5058026;28;20216;-88
2021/10/18 06:52:29;;;;;;;7.80;7.10;;;7.60;92.20;;;;;;5028401;28;20204;-88
2021/10/18 06:54:55;;;;;;;7.40;6.70;;;7.70;91.60;;;;;;5040710;28;20206;-88
2021/10/18 06:57:20;;;;;;;8.30;7.50;;;7.70;91.20;;;;;;5028497;28;20311;-89
2021/10/18 06:59:46;;;;;;;7.93;7.23;;;7.70;90.80;;;;;;5046859;28;20203;-89
2021/10/18 07:02:12;;;;;;;9.10;8.20;;;7.70;91.20;;;;;;5027074;28;20652;-89
2021/10/18 07:04:39;;;;;;;10.00;8.93;;;7.80;91.10;;;;;;5047927;28;20213;-89
2021/10/18 07:07:05;;;;;;;12.93;9.40;;;7.80;91.00;;;;;;5030887;28;20250;-89
2021/10/18 07:09:31;;;;;;;10.03;8.77;;;7.80;91.10;;;;;;5048911;28;20798;-88
2021/10/18 07:11:57;;;;;;;14.07;8.73;;;7.80;92.20;;;;;;5044956;28;20224;-88
2021/10/18 07:14:23;;;;;;;11.23;7.80;;;7.80;92.00;;;;;;5024910;28;20386;-89
2021/10/18 07:16:50;;;;;;;12.13;8.73;;;7.90;92.40;;;;;;5049048;28;20267;-89
2021/10/18 07:19:16;;;;;;;11.40;10.03;;;7.90;92.40;;;;;;5044974;28;20188;-89
2021/10/18 07:21:42;;;;;;;11.93;8.97;;;8.00;92.70;;;;;;5021024;28;20259;-89
2021/10/18 07:24:08;;;;;;;12.43;9.17;;;8.00;92.20;;;;;;5010237;28;20216;-89
2021/10/18 07:26:34;;;;;;;9.90;8.80;;;8.10;92.60;;;;;;5042703;28;20196;-89
2021/10/18 07:29:00;;;;;;;12.07;10.17;;;8.10;92.30;;;;;;5039409;28;20205;-89
2021/10/18 07:31:26;;;;;;;11.53;9.57;;;8.20;92.40;;;;;;5045885;28;20228;-89
2021/10/18 07:33:56;;;;;;;20.07;10.20;;;8.20;92.50;;;;;;5049055;28;20568;-89
2021/10/18 07:36:26;;;;;;;11.00;8.83;;;8.10;92.60;;;;;;5044086;28;20595;-89
2021/10/18 07:38:53;;;;;;;11.67;10.20;;;8.20;92.80;;;;;;5032519;28;20203;-89
2021/10/18 07:41:21;;;;;;;13.80;9.80;;;8.20;92.50;;;;;;5047165;28;20196;-89
2021/10/18 07:43:47;;;;;;;21.07;10.30;;;8.30;92.00;;;;;;5045454;28;20700;-89
2021/10/18 07:46:13;;;;;;;17.23;9.67;;;8.30;91.50;;;;;;5042504;28;20197;-89
2021/10/18 07:48:38;;;;;;;17.07;10.13;;;8.20;92.10;;;;;;5044524;28;20203;-89
2021/10/18 07:51:04;;;;;;;15.20;10.00;;;8.00;92.50;;;;;;5040958;28;20212;-89
2021/10/18 07:53:30;;;;;;;13.27;9.57;;;7.80;94.00;;;;;;5044671;28;20295;-89
2021/10/18 07:55:55;;;;;;;11.90;9.63;;;7.90;93.50;;;;;;5045046;28;20211;-88
2021/10/18 07:58:21;;;;;;;11.43;9.37;;;8.00;93.50;;;;;;5031492;28;20188;-90
2021/10/18 08:00:47;;;;;;;11.73;9.70;;;8.20;93.60;;;;;;5045428;28;20657;-90
2021/10/18 08:03:13;;;;;;;11.53;9.17;;;8.20;92.90;;;;;;5044578;28;20221;-89
2021/10/18 08:05:39;;;;;;;12.57;9.70;;;8.30;92.60;;;;;;5048007;28;20191;-89
2021/10/18 08:08:05;;;;;;;11.30;9.20;;;8.30;93.10;;;;;;5029373;28;20529;-89
2021/10/18 08:10:31;;;;;;;11.30;8.87;;;8.40;93.20;;;;;;5024448;28;20566;-90
2021/10/18 08:12:59;;;;;;;8.97;8.07;;;8.40;92.90;;;;;;5030097;28;20212;-90
2021/10/18 08:15:27;;;;;;;9.07;7.67;;;8.50;92.80;;;;;;5041753;28;20204;-89
2021/10/18 08:17:54;;;;;;;8.37;7.47;;;8.50;91.40;;;;;;5043518;28;20657;-89
2021/10/18 08:20:20;;;;;;;9.97;8.27;;;8.40;91.70;;;;;;5028247;28;20192;-89
2021/10/18 08:22:46;;;;;;;9.43;8.37;;;8.30;92.90;;;;;;5043328;28;20225;-90
2021/10/18 08:25:12;;;;;;;10.53;8.50;;;8.50;92.60;;;;;;5041681;28;20192;-90
2021/10/18 08:27:38;;;;;;;9.53;8.23;;;8.50;91.70;;;;;;5028577;28;20220;-90
2021/10/18 08:30:06;;;;;;;7.67;6.87;;;8.50;90.60;;;;;;5031001;28;20204;-90
2021/10/18 08:32:32;;;;;;;9.53;8.63;;;8.60;90.10;;;;;;5043010;28;20184;-89
2021/10/18 08:34:58;;;;;;;9.40;8.47;;;8.50;91.00;;;;;;5045092;28;20196;-90
2021/10/18 08:38:15;;;;;;;9.07;8.17;;;8.70;89.90;;;;;;5046718;28;20188;-90
2021/10/18 08:40:10;;;;;;;10.93;8.63;;;8.80;89.70;;;;;;5027256;28;20254;-90
2021/10/18 08:42:55;;;;;;;10.80;9.40;;;8.80;89.70;;;;;;5043407;28;20188;-90
2021/10/18 08:45:22;;;;;;;12.40;10.03;;;8.80;89.20;;;;;;5045238;28;20172;-90
2021/10/18 08:47:49;;;;;;;11.70;8.93;;;8.90;89.50;;;;;;5044574;28;20708;-90
2021/10/18 08:50:15;;;;;;;11.10;9.90;;;9.00;88.70;;;;;;5046409;28;20204;-90
2021/10/18 08:53:08;;;;;;;11.53;10.43;;;8.80;89.30;;;;;;5045850;28;20554;-89
2021/10/18 08:55:38;;;;;;;10.40;9.40;;;8.70;89.00;;;;;;5008244;28;20205;-89
2021/10/18 08:58:05;;;;;;;11.20;9.97;;;8.90;89.30;;;;;;5047906;28;20192;-90
2021/10/18 09:00:35;;;;;;;11.57;9.77;;;9.00;88.40;;;;;;5024292;28;20191;-89
2021/10/18 09:03:01;;;;;;;10.83;9.73;;;9.00;88.00;;;;;;5026645;28;20214;-89
2021/10/18 09:05:26;;;;;;;12.10;9.93;;;9.00;88.60;;;;;;5027790;28;20199;-90
2021/10/18 09:07:52;;;;;;;9.73;8.73;;;9.20;88.10;;;;;;5040455;28;20214;-90
2021/10/18 09:10:18;;;;;;;11.17;10.07;;;9.20;87.90;;;;;;5023864;28;20213;-92
2021/10/18 09:12:44;;;;;;;11.10;10.00;;;9.30;87.70;;;;;;5046514;28;20208;-89
2021/10/18 09:15:20;;;;;;;11.90;10.70;;;8.90;89.60;;;;;;5026869;28;20211;-89
2021/10/18 09:17:54;;;;;;;12.50;10.83;;;8.80;90.80;;;;;;5040212;28;20223;-89
2021/10/18 09:20:31;;;;;;;13.73;11.30;;;8.90;90.50;;;;;;5044762;28;20189;-88
2021/10/18 09:23:29;;;;;;;13.53;12.00;;;8.80;91.70;;;;;;5046388;28;20215;-89
2021/10/18 09:26:07;;;;;;;12.60;11.37;;;8.70;92.40;;;;;;5040937;28;20204;-89
2021/10/18 09:28:33;;;;;;;12.60;11.40;;;8.70;90.90;;;;;;5025117;28;20589;-89
2021/10/18 09:31:00;;;;;;;12.63;11.20;;;9.10;89.30;;;;;;5025241;28;20300;-90
2021/10/18 09:33:36;;;;;;;12.83;11.50;;;9.40;90.40;;;;;;5043437;28;20216;-91
2021/10/18 09:36:07;;;;;;;12.93;11.37;;;9.50;90.20;;;;;;5044244;28;20188;-90
2021/10/18 09:38:33;;;;;;;12.70;11.50;;;9.50;88.90;;;;;;5025869;28;20212;-91
2021/10/18 09:41:01;;;;;;;11.93;10.77;;;9.50;88.30;;;;;;5044201;28;20203;-91
2021/10/18 09:46:11;;;;;;;12.03;10.87;;;9.70;87.70;;;;;;5044201;28;20197;-90
2021/10/18 10:55:57;;;;;;;11.67;10.53;;;12.30;80.30;;;;;;5058438;28;20198;-91
2021/10/18 10:58:35;;;;;;;12.50;11.40;;;12.30;79.80;;;;;;5055426;28;20859;-92
2021/10/18 11:01:03;;;;;;;12.47;11.27;;;12.40;78.80;;;;;;5053950;28;20203;-91
2021/10/18 11:03:38;;;;;;;11.80;10.63;;;12.60;78.20;;;;;;5054027;28;20223;-91
2021/10/18 11:06:09;;;;;;;13.93;12.00;;;12.70;78.40;;;;;;5029525;28;20192;-92
2021/10/18 11:08:43;;;;;;;12.83;11.60;;;12.70;77.20;;;;;;5032161;28;20254;-91
2021/10/18 11:11:19;;;;;;;12.50;11.30;;;12.40;78.10;;;;;;5029690;28;20244;-90
2021/10/18 11:13:47;;;;;;;12.80;11.77;;;12.60;77.80;;;;;;5033533;28;20696;-90
2021/10/18 11:16:13;;;;;;;14.03;12.63;;;12.60;78.00;;;;;;5047428;28;20681;-90
2021/10/18 11:18:40;;;;;;;14.30;13.00;;;12.60;77.70;;;;;;5054060;28;20192;-91
2021/10/18 11:21:25;;;;;;;13.57;12.13;;;12.20;78.90;;;;;;5049102;28;20195;-90
2021/10/18 11:23:56;;;;;;;14.17;12.63;;;11.90;80.00;;;;;;5046823;28;20239;-90
2021/10/18 11:26:22;;;;;;;13.07;11.87;;;11.90;80.90;;;;;;5049822;28;20197;-90
2021/10/18 11:28:59;;;;;;;13.50;12.13;;;12.20;80.10;;;;;;5013114;28;20216;-90
2021/10/18 11:31:31;;;;;;;12.50;11.30;;;12.10;80.10;;;;;;5046570;28;20284;-90
2021/10/18 11:34:19;;;;;;;13.30;12.10;;;12.50;79.70;;;;;;5056449;28;20228;-92
2021/10/18 11:36:50;;;;;;;12.80;11.50;;;12.70;77.70;;;;;;5064482;28;20177;-89
2021/10/18 11:39:27;;;;;;;14.53;13.13;;;13.00;77.00;;;;;;5062668;28;20204;-90
2021/10/18 11:42:02;;;;;;;14.37;12.97;;;13.30;74.90;;;;;;5054805;28;20215;-89
2021/10/18 11:44:55;;;;;;;14.30;12.90;;;13.20;76.00;;;;;;5065793;28;20215;-89
2021/10/18 11:47:32;;;;;;;14.00;12.57;;;13.10;76.70;;;;;;5050784;28;20211;-89
2021/10/18 11:50:10;;;;;;;14.93;13.47;;;12.90;77.20;;;;;;5050099;28;20192;-91
2021/10/18 11:52:51;;;;;;;13.67;12.27;;;13.30;76.00;;;;;;5046006;28;20684;-91
2021/10/18 11:55:29;;;;;;;15.27;13.77;;;13.80;75.70;;;;;;5028539;28;20639;-91
2021/10/18 11:57:58;;;;;;;15.10;13.70;;;13.80;74.10;;;;;;5043608;28;20190;-91
2021/10/18 12:00:44;;;;;;;15.00;13.50;;;13.90;74.40;;;;;;5013165;28;20274;-91
2021/10/18 12:03:13;;;;;;;14.17;12.90;;;14.30;72.80;;;;;;5042942;28;20212;-91
2021/10/18 12:05:42;;;;;;;14.43;13.03;;;14.20;71.70;;;;;;5043267;28;20193;-89
2021/10/18 12:08:08;;;;;;;14.33;12.93;;;14.20;72.00;;;;;;5011935;28;20199;-90
2021/10/18 12:10:35;;;;;;;14.77;13.47;;;14.50;72.60;;;;;;5043848;28;20219;-90
2021/10/18 12:13:09;;;;;;;13.77;12.67;;;14.30;72.40;;;;;;5027360;28;20902;-90
2021/10/18 12:16:04;;;;;;;14.60;13.20;;;15.00;70.30;;;;;;5051109;28;20260;-89
2021/10/18 12:18:37;;;;;;;13.47;12.20;;;15.70;67.20;;;;;;5041786;28;20273;-90
2021/10/18 12:21:08;;;;;;;14.07;12.80;;;15.70;66.90;;;;;;5037332;28;20194;-91
2021/10/18 12:23:37;;;;;;;14.23;12.93;;;15.50;67.90;;;;;;5051899;28;20222;-91
2021/10/18 12:26:13;;;;;;;13.23;12.03;;;15.10;69.90;;;;;;5036285;28;20189;-90
2021/10/18 12:28:56;;;;;;;14.53;13.20;;;14.70;70.30;;;;;;5046281;28;20211;-90
2021/10/18 12:31:32;;;;;;;13.60;12.30;;;14.40;73.00;;;;;;5044964;28;20265;-89
2021/10/18 12:34:15;;;;;;;15.10;13.70;;;14.40;73.10;;;;;;5043698;28;20220;-90
2021/10/18 12:37:01;;;;;;;13.43;12.17;;;14.40;72.80;;;;;;5050608;28;20183;-91
2021/10/18 12:39:58;;;;;;;13.83;12.53;;;15.10;70.90;;;;;;5041631;28;20222;-91
2021/10/18 12:42:25;;;;;;;12.73;11.53;;;15.60;68.10;;;;;;5043732;28;20218;-92
2021/10/18 12:45:09;;;;;;;13.70;12.50;;;15.80;67.30;;;;;;5048936;28;20183;-90
2021/10/18 12:47:37;;;;;;;11.80;10.80;;;15.80;66.80;;;;;;5033129;28;20192;-91
2021/10/18 12:50:08;;;;;;;12.50;11.47;;;16.20;66.30;;;;;;5038036;28;20196;-91
2021/10/18 12:52:41;;;;;;;12.80;11.70;;;16.90;64.60;;;;;;5050938;28;20261;-91
2021/10/18 12:55:21;;;;;;;13.07;11.93;;;16.30;65.60;;;;;;5046948;28;20197;-91
2021/10/18 12:57:48;;;;;;;13.57;12.37;;;16.00;66.30;;;;;;5048817;28;20202;-90
2021/10/18 13:00:17;;;;;;;13.23;11.07;;;16.30;65.10;;;;;;5053761;28;20197;-91
2021/10/18 13:02:46;;;;;;;12.87;11.77;;;16.60;64.30;;;;;;5047168;28;20228;-92
2021/10/18 13:05:21;;;;;;;13.13;12.10;;;16.40;64.50;;;;;;5012221;28;20304;-91
2021/10/18 13:07:54;;;;;;;13.02;11.82;;;16.80;63.10;;;;;;5038392;28;20205;-89
2021/10/18 13:10:21;;;;;;;13.35;12.02;;;17.50;62.40;;;;;;5041856;28;20192;-89
2021/10/18 13:12:48;;;;;;;12.18;11.25;;;17.50;60.60;;;;;;5041555;28;20234;-91
2021/10/18 13:15:15;;;;;;;12.50;11.38;;;17.80;59.60;;;;;;5021201;28;20587;-90
2021/10/18 13:17:42;;;;;;;11.68;10.68;;;18.00;58.30;;;;;;5011629;28;20188;-90
2021/10/18 13:20:09;;;;;;;12.63;11.43;;;18.20;58.40;;;;;;5047287;28;20348;-90
2021/10/18 13:22:37;;;;;;;12.80;11.70;;;18.50;57.90;;;;;;5051212;28;20252;-90
2021/10/18 13:25:05;;;;;;;12.23;11.13;;;18.70;56.30;;;;;;5058760;28;20206;-90
2021/10/18 13:27:31;;;;;;;12.85;11.55;;;18.70;56.90;;;;;;5025011;28;20333;-91
2021/10/18 13:29:58;;;;;;;12.68;11.48;;;18.40;57.90;;;;;;5060293;28;20200;-89
2021/10/18 13:32:24;;;;;;;12.40;11.20;;;17.90;58.90;;;;;;5063986;28;21107;-89
2021/10/18 13:34:50;;;;;;;12.75;11.65;;;17.40;62.00;;;;;;5057662;28;20225;-91
2021/10/18 13:37:15;;;;;;;12.60;11.50;;;17.90;59.40;;;;;;5034957;28;20204;-92
2021/10/18 13:39:42;;;;;;;12.65;11.45;;;17.70;61.10;;;;;;5036233;28;20210;-90
2021/10/18 13:42:09;;;;;;;13.95;11.07;;;18.60;57.20;;;;;;5053393;28;20200;-90
2021/10/18 13:44:36;;;;;;;11.98;10.98;;;18.60;57.10;;;;;;5045461;28;20719;-90
2021/10/18 13:47:02;;;;;;;11.82;10.65;;;18.50;57.50;;;;;;5065288;28;20198;-90
2021/10/18 13:49:28;;;;;;;12.57;11.57;;;18.50;58.60;;;;;;5064834;28;20197;-90
2021/10/18 13:51:54;;;;;;;12.57;11.48;;;18.80;56.70;;;;;;5062407;28;20229;-91
2021/10/18 13:54:20;;;;;;;11.82;10.85;;;17.90;59.00;;;;;;5065532;28;20200;-91
2021/10/18 13:56:46;;;;;;;12.07;11.05;;;18.30;59.00;;;;;;5043610;28;20211;-89
2021/10/18 13:59:12;;;;;;;12.30;11.20;;;18.60;56.70;;;;;;5023430;28;20212;-90